This is the latest recevied weather packets stored in our database for station/object IZ1BLA-10. If no packets are shown the sender has not sent any weather packets the latest 10 day(s).
| Time | Temp. | Humidity | Pressure | Rain* | Wind** | Luminosity | Snow |
|---|---|---|---|---|---|---|---|
| 1778014157 | 13.89° C | 80% | 1011.9 hPa | - | - | - | - |
| 1778013556 | 15° C | 75% | 1012 hPa | - | - | - | - |
| 1778012956 | 15° C | 73% | 1011.9 hPa | - | - | - | - |
| 1778012356 | 15.56° C | 71% | 1011.7 hPa | - | - | - | - |
| 1778011756 | 14.44° C | 75% | 1012.1 hPa | - | - | - | - |
| 1778011156 | 15° C | 74% | 1011.9 hPa | - | - | - | - |
| 1778010556 | 15.56° C | 73% | 1011.8 hPa | - | - | - | - |
| 1778009956 | 14.44° C | 76% | 1012 hPa | - | - | - | - |
| 1778009356 | 14.44° C | 76% | 1011.9 hPa | - | - | - | - |
| 1778008756 | 14.44° C | 76% | 1011.8 hPa | - | - | - | - |
| 1778008156 | 14.44° C | 77% | 1011.8 hPa | - | - | - | - |
| 1778007556 | 15° C | 74% | 1011.6 hPa | - | - | - | - |
| 1778006956 | 15° C | 75% | 1011.6 hPa | - | - | - | - |
| 1778006356 | 15° C | 76% | 1011.5 hPa | - | - | - | - |
| 1778005756 | 15° C | 76% | 1011.5 hPa | - | - | - | - |
| 1778005155 | 14.44° C | 77% | 1011.6 hPa | - | - | - | - |
| 1778004556 | 15° C | 74% | 1011.5 hPa | - | - | - | - |
| 1778003956 | 14.44° C | 76% | 1011.6 hPa | - | - | - | - |
| 1778003355 | 13.89° C | 79% | 1012 hPa | - | - | - | - |
| 1778002756 | 13.89° C | 78% | 1012.1 hPa | - | - | - | - |
| 1778002155 | 14.44° C | 77% | 1011.9 hPa | - | - | - | - |
| 1778001556 | 14.44° C | 76% | 1011.8 hPa | - | - | - | - |
| 1778000956 | 13.89° C | 78% | 1011.8 hPa | - | - | - | - |
| 1778000356 | 13.89° C | 78% | 1011.9 hPa | - | - | - | - |
| 1777999756 | 13.89° C | 80% | 1011.9 hPa | - | - | - | - |
* Rain since midnight (hover to see other rain measurements)
** Current wind speed in m/s (hover to see current wind gust speed)